Time;durP1;ratioP1;P1;durP2;ratioP2;P2;SDS_P1;SDS_P2;PMS_P1;PMS_P2;Temp;Humidity;BMP_temperature;BMP_pressure;BME280_temperature;BME280_humidity;BME280_pressure;Samples;Min_cycle;Max_cycle;Signal;HPM_P1;HPM_P2
2021/07/11 00:00:32;;;;;;;10.52;8.02;;;538.40;2406.40;;;;;;5072865;28;20035;-71
2021/07/11 00:02:58;;;;;;;9.60;8.02;;;538.30;2406.40;;;;;;5073061;28;20081;-71
2021/07/11 00:05:26;;;;;;;9.13;8.13;;;538.40;2406.40;;;;;;5072783;28;20032;-71
2021/07/11 00:07:52;;;;;;;9.20;8.20;;;538.30;2406.40;;;;;;5072796;28;20490;-70
2021/07/11 00:10:18;;;;;;;10.43;8.60;;;538.30;2406.40;;;;;;5073031;28;20486;-77
2021/07/11 00:12:48;;;;;;;13.77;8.05;;;538.30;2406.40;;;;;;5073075;28;20095;-79
2021/07/11 00:15:17;;;;;;;12.25;8.00;;;538.30;2406.40;;;;;;5072840;28;20049;-78
2021/07/11 00:17:44;;;;;;;10.65;8.20;;;538.30;2406.40;;;;;;5072904;28;20056;-78
2021/07/11 00:20:13;;;;;;;9.85;7.43;;;538.30;2406.40;;;;;;5072987;28;20401;-70
2021/07/11 00:22:39;;;;;;;11.07;7.90;;;538.20;2406.40;;;;;;5072560;28;20039;-69
2021/07/11 00:25:06;;;;;;;11.23;7.93;;;538.20;2406.40;;;;;;5072730;28;20170;-71
2021/07/11 00:27:32;;;;;;;10.27;8.40;;;538.20;2406.40;;;;;;5072356;28;20063;-69
2021/07/11 00:29:58;;;;;;;11.20;8.35;;;538.10;2406.40;;;;;;5046282;28;20439;-75
2021/07/11 00:32:24;;;;;;;11.18;8.13;;;538.00;2406.40;;;;;;5053124;28;20017;-72
2021/07/11 00:34:50;;;;;;;10.27;8.85;;;538.10;2406.40;;;;;;5051128;28;20021;-69
2021/07/11 00:37:16;;;;;;;11.48;8.55;;;538.00;2406.40;;;;;;5051813;28;20032;-73
2021/07/11 00:39:41;;;;;;;10.82;8.15;;;537.90;2406.40;;;;;;5052682;28;20029;-73
2021/07/11 00:42:15;;;;;;;10.95;8.50;;;537.90;2406.40;;;;;;5052567;28;20028;-72
2021/07/11 00:44:41;;;;;;;11.63;8.60;;;537.90;2406.40;;;;;;5052291;28;20029;-71
2021/07/11 00:47:07;;;;;;;13.82;8.77;;;537.80;2406.40;;;;;;5052264;28;20017;-71
2021/07/11 00:49:33;;;;;;;10.25;8.63;;;537.80;2406.40;;;;;;5052368;28;20032;-69
2021/07/11 00:51:59;;;;;;;10.07;7.95;;;537.90;2406.40;;;;;;5052315;28;20017;-70
2021/07/11 00:54:24;;;;;;;9.63;8.55;;;537.80;2406.40;;;;;;5052212;28;20159;-70
2021/07/11 00:56:50;;;;;;;10.80;8.20;;;537.70;2406.40;;;;;;5052308;28;20071;-69
2021/07/11 00:59:20;;;;;;;9.85;8.10;;;537.80;2406.40;;;;;;5052283;28;20028;-69
2021/07/11 01:01:57;;;;;;;9.57;7.50;;;537.90;2406.40;;;;;;5052396;28;20035;-69
2021/07/11 01:04:38;;;;;;;10.82;7.68;;;537.80;2406.40;;;;;;5052413;28;20122;-69
2021/07/11 01:07:08;;;;;;;9.77;7.43;;;537.90;2406.40;;;;;;5052223;28;20057;-69
2021/07/11 01:09:43;;;;;;;9.68;7.13;;;538.00;2406.40;;;;;;5052254;28;20029;-71
2021/07/11 01:12:23;;;;;;;8.27;6.80;;;538.00;2406.40;;;;;;5039461;28;20104;-69
2021/07/11 01:14:53;;;;;;;8.82;6.88;;;538.00;2406.40;;;;;;5052000;28;20071;-71
2021/07/11 01:17:25;;;;;;;8.10;6.90;;;538.00;2406.40;;;;;;5047231;28;20044;-75
2021/07/11 01:20:00;;;;;;;10.75;6.93;;;538.00;2406.40;;;;;;5051931;28;20490;-81
2021/07/11 01:22:34;;;;;;;10.10;6.57;;;538.00;2406.40;;;;;;5052267;28;20025;-81
2021/07/11 01:25:08;;;;;;;10.88;6.82;;;538.00;2406.40;;;;;;5052193;28;20029;-74
2021/07/11 01:27:35;;;;;;;11.60;6.68;;;538.00;2406.40;;;;;;5051980;28;20029;-70
2021/07/11 01:30:03;;;;;;;11.18;7.10;;;538.00;2406.40;;;;;;5051834;28;20017;-70
2021/07/11 01:32:30;;;;;;;10.73;7.45;;;537.90;2406.40;;;;;;5052248;28;20115;-69
2021/07/11 01:35:00;;;;;;;8.90;7.45;;;537.80;2406.40;;;;;;5051853;28;20104;-70
2021/07/11 01:37:28;;;;;;;10.88;8.18;;;537.70;2406.40;;;;;;5051951;28;20025;-69
2021/07/11 01:39:55;;;;;;;10.57;8.55;;;537.70;2406.40;;;;;;5042094;28;20399;-71
2021/07/11 01:42:21;;;;;;;9.82;8.32;;;537.60;2406.40;;;;;;5048259;28;20031;-70
2021/07/11 01:44:48;;;;;;;12.38;9.07;;;512.90;2380.80;;;;;;5051366;28;20112;-69
2021/07/11 01:47:14;;;;;;;12.25;8.60;;;512.90;2380.80;;;;;;5051446;28;20081;-70
2021/07/11 01:49:41;;;;;;;11.00;8.90;;;512.80;2380.80;;;;;;5053982;28;20028;-70
2021/07/11 01:52:08;;;;;;;10.27;8.75;;;512.70;2380.80;;;;;;5055610;28;20395;-70
2021/07/11 01:54:34;;;;;;;11.43;9.23;;;512.60;2380.80;;;;;;5054130;28;20017;-70
2021/07/11 01:57:00;;;;;;;11.75;8.27;;;512.70;2380.80;;;;;;5055241;28;20091;-70
2021/07/11 01:59:26;;;;;;;10.00;7.95;;;512.80;2380.80;;;;;;5055218;28;20394;-70
2021/07/11 02:01:52;;;;;;;12.02;8.20;;;512.80;2380.80;;;;;;5055159;28;20096;-70
2021/07/11 02:04:17;;;;;;;11.75;8.43;;;512.70;2380.80;;;;;;5054950;28;20403;-71
2021/07/11 02:06:43;;;;;;;11.32;8.30;;;512.60;2380.80;;;;;;5055115;28;20029;-70
2021/07/11 02:09:09;;;;;;;13.23;8.77;;;512.50;2380.80;;;;;;5055119;28;20040;-70
2021/07/11 02:11:39;;;;;;;10.55;8.68;;;512.50;2380.80;;;;;;5054872;28;20021;-69
2021/07/11 02:14:16;;;;;;;10.52;8.25;;;512.40;2380.80;;;;;;5054794;28;20094;-70
2021/07/11 02:16:52;;;;;;;9.13;6.93;;;512.30;2380.80;;;;;;5054999;28;20021;-70
2021/07/11 02:19:18;;;;;;;10.20;7.70;;;512.10;2380.80;;;;;;5055076;28;20422;-71
2021/07/11 02:21:45;;;;;;;8.20;6.72;;;512.00;2380.80;;;;;;5054636;28;20059;-71
2021/07/11 02:24:12;;;;;;;11.13;6.93;;;487.30;2380.80;;;;;;5055086;28;20086;-71
2021/07/11 02:26:38;;;;;;;8.32;6.35;;;487.30;2380.80;;;;;;5054520;28;20013;-72
2021/07/11 02:29:06;;;;;;;8.80;6.70;;;487.30;2380.80;;;;;;5054977;28;20048;-73
2021/07/11 02:31:39;;;;;;;8.80;6.75;;;487.30;2380.80;;;;;;5054533;28;20420;-70
2021/07/11 02:34:06;;;;;;;8.13;6.75;;;487.30;2380.80;;;;;;5047708;28;20487;-70
2021/07/11 02:36:33;;;;;;;7.32;6.22;;;487.20;2380.80;;;;;;5054392;28;20029;-70
2021/07/11 02:39:12;;;;;;;7.88;6.55;;;487.20;2380.80;;;;;;5054736;28;20036;-70
2021/07/11 02:41:47;;;;;;;8.70;6.55;;;487.20;2380.80;;;;;;5054553;28;20387;-72
2021/07/11 02:44:13;;;;;;;8.85;5.88;;;487.10;2380.80;;;;;;5054379;28;20021;-72
2021/07/11 02:46:49;;;;;;;9.68;6.78;;;487.10;2380.80;;;;;;5054257;28;20029;-70
2021/07/11 02:49:21;;;;;;;9.85;6.70;;;487.10;2380.80;;;;;;5054499;28;20025;-70
2021/07/11 02:51:51;;;;;;;9.10;6.72;;;487.10;2380.80;;;;;;5054564;28;20430;-71
2021/07/11 02:54:22;;;;;;;9.52;6.30;;;487.10;2380.80;;;;;;5054211;28;20422;-72
2021/07/11 02:56:51;;;;;;;7.03;6.25;;;487.20;2380.80;;;;;;5054367;28;20124;-71
2021/07/11 02:59:19;;;;;;;9.23;6.55;;;487.10;2380.80;;;;;;5053412;28;20051;-70
2021/07/11 03:01:45;;;;;;;9.05;6.50;;;487.20;2380.80;;;;;;5052867;28;20048;-70
2021/07/11 03:04:13;;;;;;;7.97;6.40;;;487.10;2380.80;;;;;;5048511;28;20056;-72
2021/07/11 03:06:39;;;;;;;8.75;6.63;;;487.10;2380.80;;;;;;5041918;28;20033;-70
2021/07/11 03:09:06;;;;;;;8.57;6.50;;;487.10;2380.80;;;;;;5052534;28;20386;-71
2021/07/11 03:11:35;;;;;;;9.60;6.63;;;487.10;2380.80;;;;;;5053994;28;20025;-70
2021/07/11 03:14:01;;;;;;;8.13;6.50;;;487.00;2380.80;;;;;;5053707;28;20037;-70
2021/07/11 03:16:28;;;;;;;10.32;6.28;;;487.00;2380.80;;;;;;5053043;28;20506;-69
2021/07/11 03:18:55;;;;;;;8.73;6.35;;;487.00;2380.80;;;;;;5053810;28;20021;-70
2021/07/11 03:21:25;;;;;;;9.40;6.18;;;487.00;2380.80;;;;;;5053496;28;20021;-71
2021/07/11 03:23:55;;;;;;;8.52;6.38;;;486.90;2380.80;;;;;;5053563;28;20145;-74
2021/07/11 03:26:22;;;;;;;11.93;6.78;;;487.00;2380.80;;;;;;5051783;28;20395;-70
2021/07/11 03:28:49;;;;;;;8.73;6.57;;;487.00;2380.80;;;;;;5049292;28;20514;-75
2021/07/11 03:31:16;;;;;;;9.40;6.38;;;487.00;2380.80;;;;;;5050833;28;20063;-71
2021/07/11 03:33:46;;;;;;;8.70;6.03;;;487.10;2380.80;;;;;;5053631;28;20029;-71
2021/07/11 03:36:15;;;;;;;7.80;6.40;;;487.10;2380.80;;;;;;5051994;28;20017;-70
2021/07/11 03:38:44;;;;;;;10.43;6.95;;;487.10;2380.80;;;;;;5053212;28;20025;-70
2021/07/11 03:41:18;;;;;;;9.10;6.78;;;487.20;2380.80;;;;;;5053482;28;20017;-70
2021/07/11 03:43:49;;;;;;;10.30;7.10;;;487.20;2380.80;;;;;;5053136;28;20025;-70
2021/07/11 03:46:17;;;;;;;12.32;7.07;;;487.20;2380.80;;;;;;5048247;28;20048;-71
2021/07/11 03:48:58;;;;;;;9.77;6.68;;;487.20;2380.80;;;;;;5050433;28;20038;-71
2021/07/11 03:51:27;;;;;;;8.63;6.80;;;487.30;2380.80;;;;;;5045925;28;20441;-70
2021/07/11 03:53:55;;;;;;;8.55;6.93;;;487.30;2380.80;;;;;;5046037;28;20445;-70
2021/07/11 03:56:28;;;;;;;8.63;6.70;;;487.30;2380.80;;;;;;5052769;28;20021;-70
2021/07/11 03:58:57;;;;;;;9.48;6.63;;;487.30;2380.80;;;;;;5052985;28;20019;-70
2021/07/11 04:01:31;;;;;;;10.75;6.95;;;487.30;2380.80;;;;;;5047095;28;20514;-69
2021/07/11 04:03:58;;;;;;;9.02;6.68;;;512.00;2380.80;;;;;;5035732;28;20039;-71
2021/07/11 04:06:26;;;;;;;11.90;7.28;;;512.00;2380.80;;;;;;5042480;28;20491;-70
2021/07/11 04:08:56;;;;;;;9.75;6.93;;;512.00;2380.80;;;;;;5049953;28;20383;-70
2021/07/11 04:11:23;;;;;;;10.33;7.00;;;512.00;2380.80;;;;;;5048143;28;20031;-70
2021/07/11 04:13:49;;;;;;;10.18;6.97;;;512.00;2380.80;;;;;;5052484;28;20282;-69
2021/07/11 04:16:17;;;;;;;12.93;8.00;;;512.10;2380.80;;;;;;5052134;28;20040;-70
2021/07/11 04:18:45;;;;;;;8.25;7.35;;;512.00;2380.80;;;;;;5052502;28;20024;-71
2021/07/11 04:21:12;;;;;;;11.30;7.70;;;487.30;2380.80;;;;;;5052687;28;20025;-70
2021/07/11 04:23:40;;;;;;;10.90;7.15;;;487.30;2380.80;;;;;;5052010;28;20033;-74
2021/07/11 04:26:06;;;;;;;11.52;7.57;;;487.30;2380.80;;;;;;5052768;28;20025;-73
2021/07/11 04:28:34;;;;;;;11.93;7.57;;;512.10;2380.80;;;;;;5052300;28;20047;-76
2021/07/11 04:31:04;;;;;;;9.95;7.50;;;512.20;2380.80;;;;;;5052602;28;20048;-75
2021/07/11 04:33:30;;;;;;;;;;;512.30;2380.80;;;;;;5052694;28;20013;-74
2021/07/11 04:35:56;;;;;;;11.40;7.50;;;512.40;2380.80;;;;;;5052176;28;20410;-74
2021/07/11 04:38:22;;;;;;;11.27;7.80;;;512.50;2380.80;;;;;;5051873;28;20105;-76
2021/07/11 04:40:48;;;;;;;15.88;7.90;;;512.60;2380.80;;;;;;5051975;28;20593;-76
2021/07/11 04:43:16;;;;;;;9.50;7.93;;;512.70;2380.80;;;;;;5051826;28;20024;-71
2021/07/11 04:45:43;;;;;;;10.95;7.78;;;512.70;2380.80;;;;;;5051868;28;20029;-70
2021/07/11 04:48:08;;;;;;;12.60;8.52;;;512.90;2380.80;;;;;;5051854;28;20024;-70
2021/07/11 04:50:34;;;;;;;12.10;8.43;;;;;;;;;;5051922;28;20403;-71
2021/07/11 04:53:00;;;;;;;12.18;8.48;;;512.90;2380.80;;;;;;5051887;28;20066;-71
2021/07/11 04:55:26;;;;;;;14.68;9.25;;;589.20;2432.00;;;;;;5051996;28;20421;-70
2021/07/11 04:57:52;;;;;;;14.20;8.88;;;717.00;2432.00;;;;;;5051884;28;20502;-68
2021/07/11 05:00:18;;;;;;;13.32;8.77;;;794.30;2355.20;;;;;;5051873;28;20063;-68
2021/07/11 05:02:44;;;;;;;9.50;7.75;;;870.70;2022.40;;;;;;5052160;28;20025;-68
2021/07/11 05:05:10;;;;;;;9.57;7.45;;;922.10;1766.40;;;;;;5051922;28;20029;-69
2021/07/11 05:07:36;;;;;;;8.75;7.07;;;948.10;1612.80;;;;;;5051767;28;20418;-68
2021/07/11 05:10:07;;;;;;;9.95;6.88;;;998.70;1536.00;;;;;;5051541;28;20021;-69
2021/07/11 05:12:33;;;;;;;7.57;6.47;;;1024.10;1433.60;;;;;;5051501;28;20017;-69
2021/07/11 05:15:00;;;;;;;8.95;6.30;;;1049.80;1408.00;;;;;;5051255;28;20041;-68
2021/07/11 05:17:25;;;;;;;7.82;6.63;;;1050.50;1356.80;;;;;;5051596;28;20021;-68
2021/07/11 05:19:51;;;;;;;7.38;6.57;;;1075.80;1305.60;;;;;;5051606;28;20035;-68
2021/07/11 05:22:17;;;;;;;11.77;6.88;;;1075.60;1305.60;;;;;;5051785;28;20021;-68
2021/07/11 05:24:43;;;;;;;7.50;6.63;;;1100.90;1305.60;;;;;;5054416;28;20033;-68
2021/07/11 05:27:09;;;;;;;7.75;6.13;;;1101.30;1280.00;;;;;;5055723;28;20083;-68
2021/07/11 05:29:34;;;;;;;9.77;6.20;;;1126.70;1280.00;;;;;;5055665;28;20021;-68
2021/07/11 05:32:00;;;;;;;8.80;7.00;;;1126.70;1254.40;;;;;;5055464;28;20017;-68
2021/07/11 05:34:26;;;;;;;9.50;6.75;;;1126.70;1254.40;;;;;;5055962;28;20017;-68
2021/07/11 05:36:52;;;;;;;9.27;6.63;;;1127.30;1228.80;;;;;;5055565;28;20017;-68
2021/07/11 05:39:19;;;;;;;11.55;6.70;;;1101.50;1228.80;;;;;;5055783;28;20044;-68
2021/07/11 05:41:45;;;;;;;8.32;7.05;;;999.10;1331.20;;;;;;5055531;28;20070;-68
2021/07/11 05:44:11;;;;;;;9.65;7.80;;;871.30;1484.80;;;;;;5055397;28;20016;-72
2021/07/11 05:46:37;;;;;;;9.73;7.63;;;819.40;1638.40;;;;;;5055143;28;20048;-69
2021/07/11 05:49:03;;;;;;;11.07;8.45;;;768.10;1740.80;;;;;;5054857;28;20112;-69
2021/07/11 05:51:29;;;;;;;9.90;8.02;;;717.50;1817.60;;;;;;5055049;28;20497;-69
2021/07/11 05:53:55;;;;;;;11.60;7.85;;;691.90;1868.80;;;;;;5055196;28;20032;-69
2021/07/11 05:56:20;;;;;;;10.80;8.20;;;691.50;1920.00;;;;;;5054988;28;20017;-69
2021/07/11 05:58:46;;;;;;;9.18;7.60;;;666.40;1971.20;;;;;;5055057;28;20033;-69
2021/07/11 06:01:12;;;;;;;9.15;7.38;;;666.00;1996.80;;;;;;5055142;28;20021;-71
2021/07/11 06:03:38;;;;;;;7.90;7.03;;;665.90;1971.20;;;;;;5055311;28;20483;-70
2021/07/11 06:06:04;;;;;;;10.85;7.50;;;665.90;1971.20;;;;;;5054873;28;20036;-70
2021/07/11 06:08:30;;;;;;;13.05;7.50;;;666.00;2022.40;;;;;;5055005;28;20017;-69
2021/07/11 06:10:55;;;;;;;8.52;6.20;;;665.90;1996.80;;;;;;5054880;28;20021;-70
2021/07/11 06:13:22;;;;;;;10.25;6.80;;;666.00;1945.60;;;;;;5054925;28;20021;-72
2021/07/11 06:15:48;;;;;;;10.80;7.05;;;666.00;1971.20;;;;;;5055344;28;20361;-73
2021/07/11 06:18:14;;;;;;;9.40;7.35;;;666.00;1971.20;;;;;;5055275;28;20095;-70
2021/07/11 06:20:41;;;;;;;12.45;6.88;;;666.00;1996.80;;;;;;5054971;28;20035;-69
2021/07/11 06:23:06;;;;;;;11.73;6.97;;;666.20;1996.80;;;;;;5051106;28;20025;-69
2021/07/11 06:25:33;;;;;;;10.05;7.15;;;666.30;1996.80;;;;;;5053932;28;20067;-68
2021/07/11 06:27:59;;;;;;;11.40;7.07;;;666.40;1996.80;;;;;;5054314;28;20036;-69
2021/07/11 06:30:24;;;;;;;8.75;6.22;;;691.30;1996.80;;;;;;5054667;28;20013;-69
2021/07/11 06:32:50;;;;;;;9.55;6.15;;;691.30;1971.20;;;;;;5054672;28;20044;-69
2021/07/11 06:35:18;;;;;;;8.32;6.60;;;691.50;1996.80;;;;;;5054682;28;20013;-69
2021/07/11 06:37:48;;;;;;;9.88;6.28;;;691.50;2022.40;;;;;;5054683;28;20056;-69
2021/07/11 06:40:15;;;;;;;11.18;6.20;;;691.70;1996.80;;;;;;5054330;28;20017;-70
2021/07/11 06:42:41;;;;;;;8.63;5.78;;;691.80;2022.40;;;;;;5054271;28;20032;-69
2021/07/11 06:45:09;;;;;;;7.97;5.70;;;691.80;1996.80;;;;;;5054696;28;20021;-69
2021/07/11 06:47:35;;;;;;;12.18;6.70;;;691.90;2022.40;;;;;;5053987;28;20013;-69
2021/07/11 06:50:01;;;;;;;6.57;5.60;;;691.90;2022.40;;;;;;5054401;28;20032;-72
2021/07/11 06:52:26;;;;;;;7.43;5.88;;;692.00;1945.60;;;;;;5054069;28;20017;-73
2021/07/11 06:54:53;;;;;;;8.38;5.60;;;716.80;1971.20;;;;;;5054353;28;20025;-71
2021/07/11 06:57:19;;;;;;;10.20;5.40;;;716.80;1945.60;;;;;;5054346;28;20029;-74
2021/07/11 06:59:45;;;;;;;12.23;5.30;;;716.90;1920.00;;;;;;5054194;28;20044;-73
2021/07/11 07:02:11;;;;;;;7.90;5.28;;;717.10;1894.40;;;;;;5054115;28;20387;-71
2021/07/11 07:04:36;;;;;;;7.50;4.93;;;717.20;1920.00;;;;;;5053541;28;20452;-70
2021/07/11 07:07:02;;;;;;;8.23;5.50;;;717.30;1868.80;;;;;;5053844;28;20021;-70
2021/07/11 07:09:28;;;;;;;6.85;5.30;;;717.70;1868.80;;;;;;5054241;28;20115;-73
2021/07/11 07:11:54;;;;;;;7.88;4.97;;;717.70;1868.80;;;;;;5053967;28;20097;-74
2021/07/11 07:14:20;;;;;;;6.57;4.60;;;742.50;1868.80;;;;;;5053751;28;20495;-74
2021/07/11 07:16:45;;;;;;;7.78;5.43;;;743.00;1868.80;;;;;;5053614;28;20024;-71
2021/07/11 07:19:11;;;;;;;7.40;4.90;;;743.20;1817.60;;;;;;5053693;28;20082;-71
2021/07/11 07:21:37;;;;;;;7.90;4.90;;;768.70;1766.40;;;;;;5053428;28;20074;-71
2021/07/11 07:24:03;;;;;;;6.25;4.80;;;844.80;1689.60;;;;;;5053823;28;20025;-70
2021/07/11 07:26:29;;;;;;;7.15;4.30;;;947.50;1459.20;;;;;;5053573;28;20025;-73
2021/07/11 07:28:54;;;;;;;7.97;4.68;;;1050.20;1331.20;;;;;;5053474;28;20031;-73
2021/07/11 07:31:20;;;;;;;10.05;4.57;;;1126.70;1254.40;;;;;;5053776;28;20017;-71
2021/07/11 07:33:46;;;;;;;5.72;4.20;;;1152.70;1177.60;;;;;;5053355;28;20471;-71
2021/07/11 07:36:12;;;;;;;20.13;6.05;;;1178.50;1100.80;;;;;;5053376;28;20028;-71
2021/07/11 07:38:38;;;;;;;7.32;4.43;;;1228.80;1100.80;;;;;;5053554;28;20029;-69
2021/07/11 07:41:03;;;;;;;7.53;4.20;;;1204.10;1075.20;;;;;;5053158;28;20027;-72
2021/07/11 07:43:29;;;;;;;8.77;4.82;;;1177.70;1075.20;;;;;;5053070;28;20056;-72
2021/07/11 07:45:55;;;;;;;8.23;4.20;;;1075.50;1177.60;;;;;;5052966;28;20024;-72
2021/07/11 07:48:20;;;;;;;7.25;4.15;;;998.40;1305.60;;;;;;5052763;28;20490;-71
2021/07/11 07:50:46;;;;;;;6.60;4.30;;;947.40;1305.60;;;;;;5052979;28;20029;-70
2021/07/11 07:53:12;;;;;;;7.85;4.03;;;921.90;1356.80;;;;;;5047910;28;20017;-70
2021/07/11 07:55:38;;;;;;;8.20;4.70;;;922.40;1356.80;;;;;;5046906;28;20075;-68
2021/07/11 07:58:03;;;;;;;6.05;4.05;;;973.20;1305.60;;;;;;5052640;28;20017;-69
2021/07/11 08:00:29;;;;;;;9.00;4.65;;;1075.50;1203.20;;;;;;5053188;28;20471;-69
2021/07/11 08:02:55;;;;;;;7.68;4.38;;;1126.70;1152.00;;;;;;5052683;28;20305;-69
2021/07/11 08:05:21;;;;;;;6.88;4.45;;;1178.50;1075.20;;;;;;5052494;28;20437;-69
2021/07/11 08:07:47;;;;;;;6.43;4.45;;;1229.40;1075.20;;;;;;5052257;28;20379;-70
2021/07/11 08:10:17;;;;;;;6.35;3.80;;;1254.80;1100.80;;;;;;5052821;28;20100;-69
2021/07/11 08:12:44;;;;;;;5.60;3.70;;;1280.40;1049.60;;;;;;5052583;28;20028;-69
2021/07/11 08:15:16;;;;;;;4.97;3.75;;;1305.60;1049.60;;;;;;5051621;28;20499;-71
2021/07/11 08:17:44;;;;;;;6.13;3.50;;;1331.40;1024.00;;;;;;5052643;28;20368;-71
2021/07/11 08:20:10;;;;;;;7.55;3.70;;;1332.10;1024.00;;;;;;5052043;28;20368;-71
2021/07/11 08:22:36;;;;;;;4.95;3.30;;;1356.90;1024.00;;;;;;5052394;28;20094;-71
2021/07/11 08:25:03;;;;;;;4.93;3.42;;;1357.10;998.40;;;;;;5052631;28;20449;-70
2021/07/11 08:27:29;;;;;;;6.13;3.30;;;1357.40;998.40;;;;;;5052624;28;20126;-70
2021/07/11 08:29:54;;;;;;;5.38;3.50;;;1356.80;998.40;;;;;;5052452;28;20029;-70
2021/07/11 08:32:21;;;;;;;5.18;3.13;;;1357.70;972.80;;;;;;5052474;28;20021;-71
2021/07/11 08:34:46;;;;;;;6.15;3.78;;;1383.10;998.40;;;;;;5052438;28;20356;-70
2021/07/11 08:37:12;;;;;;;7.35;3.60;;;1357.40;972.80;;;;;;5052223;28;20079;-71
2021/07/11 08:39:38;;;;;;;5.40;3.42;;;1357.20;972.80;;;;;;5052295;28;20056;-71
2021/07/11 08:42:07;;;;;;;6.28;3.35;;;1382.80;998.40;;;;;;5052252;28;20479;-71
2021/07/11 08:44:33;;;;;;;5.18;3.55;;;1357.70;947.20;;;;;;5052096;28;20040;-74
2021/07/11 08:46:59;;;;;;;6.13;3.40;;;1383.10;972.80;;;;;;5052236;28;20506;-72
2021/07/11 08:49:24;;;;;;;6.05;3.50;;;1357.70;972.80;;;;;;5052111;28;20049;-76
2021/07/11 08:51:57;;;;;;;6.63;3.40;;;1357.40;972.80;;;;;;5052363;28;20017;-75
2021/07/11 08:54:23;;;;;;;5.95;3.42;;;1357.40;972.80;;;;;;5052046;28;20075;-75
2021/07/11 08:56:49;;;;;;;5.10;3.45;;;1331.40;998.40;;;;;;5045272;28;20486;-70
2021/07/11 08:59:14;;;;;;;5.10;3.63;;;1305.70;998.40;;;;;;5047425;28;20029;-70
2021/07/11 09:01:40;;;;;;;5.13;3.75;;;1254.50;1049.60;;;;;;5050992;28;20526;-69
2021/07/11 09:04:10;;;;;;;6.60;3.60;;;1203.40;1024.00;;;;;;5056315;28;20035;-70
2021/07/11 09:06:54;;;;;;;5.63;3.60;;;1101.60;1100.80;;;;;;5054112;28;20096;-70
2021/07/11 09:09:24;;;;;;;5.25;3.80;;;1050.20;1152.00;;;;;;5056044;28;20430;-69
2021/07/11 09:11:52;;;;;;;5.53;3.65;;;998.80;1177.60;;;;;;5044832;28;20051;-69
2021/07/11 09:14:23;;;;;;;6.70;4.03;;;973.60;1228.80;;;;;;5054924;28;20047;-71
2021/07/11 09:16:50;;;;;;;5.05;3.80;;;947.80;1228.80;;;;;;5055924;28;20028;-71
2021/07/11 09:19:25;;;;;;;6.00;3.78;;;947.20;1280.00;;;;;;5041138;28;20021;-70
2021/07/11 09:21:55;;;;;;;6.82;3.80;;;922.00;1305.60;;;;;;5036857;28;20029;-69
2021/07/11 09:24:22;;;;;;;7.55;4.57;;;921.80;1305.60;;;;;;5041061;28;20399;-69
2021/07/11 09:26:50;;;;;;;5.68;3.90;;;896.90;1280.00;;;;;;5040959;28;20029;-69
2021/07/11 09:29:37;;;;;;;6.90;3.70;;;896.40;1331.20;;;;;;5040753;28;20026;-69
2021/07/11 09:32:03;;;;;;;7.22;4.57;;;871.30;1331.20;;;;;;5055654;28;20036;-69
2021/07/11 09:34:30;;;;;;;6.00;4.40;;;871.20;1356.80;;;;;;5046794;28;20067;-69
2021/07/11 09:37:15;;;;;;;6.45;4.30;;;871.00;1356.80;;;;;;5048020;28;20471;-69
2021/07/11 09:40:07;;;;;;;5.95;4.20;;;870.80;1382.40;;;;;;5044241;28;20017;-70
2021/07/11 09:42:40;;;;;;;6.80;3.92;;;870.70;1382.40;;;;;;5041856;28;20037;-73
2021/07/11 09:45:18;;;;;;;6.28;4.20;;;870.80;1356.80;;;;;;5052543;28;20021;-73
2021/07/11 09:47:45;;;;;;;7.25;4.07;;;870.70;1408.00;;;;;;5055223;28;20060;-72
2021/07/11 09:50:20;;;;;;;5.72;4.70;;;870.50;1408.00;;;;;;5054526;28;20025;-73
2021/07/11 09:52:48;;;;;;;5.78;4.10;;;870.40;1356.80;;;;;;5053789;28;20021;-76
2021/07/11 09:55:19;;;;;;;5.47;4.10;;;845.70;1356.80;;;;;;5055570;28;20025;-70
2021/07/11 09:57:54;;;;;;;6.97;4.60;;;845.70;1356.80;;;;;;5055179;28;20475;-70
2021/07/11 10:00:23;;;;;;;7.22;4.43;;;845.70;1356.80;;;;;;5055262;28;20025;-70
2021/07/11 10:02:51;;;;;;;6.88;4.43;;;845.40;1356.80;;;;;;5055084;28;20036;-70
2021/07/11 10:05:18;;;;;;;5.53;4.35;;;845.60;1382.40;;;;;;5054305;28;20036;-71
2021/07/11 10:07:44;;;;;;;5.43;4.50;;;845.60;1382.40;;;;;;5054375;28;20108;-69
2021/07/11 10:10:13;;;;;;;6.30;4.65;;;845.50;1382.40;;;;;;5054808;28;20112;-69
2021/07/11 10:12:39;;;;;;;6.63;4.18;;;845.40;1382.40;;;;;;5055372;28;20032;-69
2021/07/11 10:15:11;;;;;;;7.22;4.40;;;845.40;1382.40;;;;;;5047445;28;20045;-70
2021/07/11 10:17:48;;;;;;;6.50;4.30;;;845.40;1382.40;;;;;;5054966;28;20048;-69
2021/07/11 10:20:20;;;;;;;7.68;5.57;;;845.40;1382.40;;;;;;5047869;28;20525;-70
2021/07/11 10:22:52;;;;;;;7.45;4.90;;;845.30;1382.40;;;;;;5054832;28;20033;-69
2021/07/11 10:25:20;;;;;;;7.30;4.72;;;845.50;1382.40;;;;;;5041039;28;20037;-72
2021/07/11 10:27:48;;;;;;;6.40;4.43;;;845.60;1382.40;;;;;;5054911;28;20068;-75
2021/07/11 10:30:14;;;;;;;6.05;3.97;;;845.70;1382.40;;;;;;5050588;28;20052;-73
2021/07/11 10:32:41;;;;;;;6.45;4.65;;;845.70;1382.40;;;;;;5052431;28;20029;-73
2021/07/11 10:35:18;;;;;;;5.75;4.57;;;845.70;1382.40;;;;;;5050378;28;20028;-68
2021/07/11 10:37:54;;;;;;;5.07;3.95;;;845.70;1408.00;;;;;;5054621;28;20472;-72
2021/07/11 10:40:29;;;;;;;4.93;4.22;;;845.60;1408.00;;;;;;5054434;28;20043;-71
2021/07/11 10:42:55;;;;;;;7.68;4.40;;;845.70;1408.00;;;;;;5052344;28;20063;-71
2021/07/11 10:45:21;;;;;;;5.93;4.35;;;845.60;1408.00;;;;;;5053562;28;20376;-72
2021/07/11 10:47:48;;;;;;;5.43;4.40;;;845.70;1408.00;;;;;;5054203;28;20029;-71
2021/07/11 10:50:25;;;;;;;7.10;4.53;;;845.70;1382.40;;;;;;5054690;28;20024;-71
2021/07/11 10:52:51;;;;;;;5.80;4.00;;;845.70;1408.00;;;;;;5052917;28;20025;-69
2021/07/11 10:55:17;;;;;;;5.78;4.30;;;870.40;1408.00;;;;;;5054209;28;20028;-72
2021/07/11 10:57:43;;;;;;;5.95;4.03;;;870.50;1408.00;;;;;;5041706;28;20045;-67
2021/07/11 11:00:19;;;;;;;5.20;4.40;;;870.60;1382.40;;;;;;5054155;28;20033;-70
2021/07/11 11:02:48;;;;;;;7.10;4.30;;;870.50;1382.40;;;;;;5053881;28;20025;-70
2021/07/11 11:05:16;;;;;;;5.30;4.28;;;870.50;1382.40;;;;;;5053488;28;20101;-69
2021/07/11 11:07:50;;;;;;;7.18;5.90;;;870.60;1382.40;;;;;;5049437;28;20372;-70
2021/07/11 11:10:35;;;;;;;6.18;4.65;;;870.70;1382.40;;;;;;5054033;28;20364;-68
2021/07/11 11:13:19;;;;;;;5.47;4.30;;;870.50;1356.80;;;;;;5046878;28;20024;-68
2021/07/11 11:15:55;;;;;;;6.38;4.53;;;870.50;1356.80;;;;;;5053806;28;20048;-68
2021/07/11 11:18:38;;;;;;;6.60;4.30;;;870.70;1382.40;;;;;;5053613;28;20016;-74
2021/07/11 11:21:07;;;;;;;7.13;4.63;;;870.70;1382.40;;;;;;5046593;28;20025;-72
2021/07/11 11:23:36;;;;;;;5.10;4.50;;;870.70;1356.80;;;;;;5053484;28;20506;-71
2021/07/11 11:26:02;;;;;;;8.30;4.70;;;870.70;1356.80;;;;;;5054085;28;20039;-73
2021/07/11 11:28:37;;;;;;;6.80;4.85;;;870.70;1356.80;;;;;;5053446;28;20025;-73
2021/07/11 11:31:10;;;;;;;5.72;4.60;;;870.70;1331.20;;;;;;5053661;28;20024;-72
2021/07/11 11:34:12;;;;;;;8.05;5.45;;;870.70;1356.80;;;;;;5048480;28;20141;-74
2021/07/11 11:36:42;;;;;;;6.75;4.72;;;870.70;1356.80;;;;;;5051301;28;20025;-75
2021/07/11 11:39:22;;;;;;;5.45;4.25;;;870.70;1356.80;;;;;;5069542;28;20043;-72
2021/07/11 11:41:48;;;;;;;8.75;4.28;;;871.00;1356.80;;;;;;5090372;28;20031;-74
2021/07/11 11:44:16;;;;;;;5.57;4.10;;;947.70;1254.40;;;;;;5090211;28;20051;-72
2021/07/11 11:46:44;;;;;;;5.03;3.90;;;999.20;1177.60;;;;;;5090158;28;20493;-73
2021/07/11 11:49:13;;;;;;;8.18;4.10;;;1049.70;1177.60;;;;;;5091542;28;20111;-73
2021/07/11 11:51:53;;;;;;;7.38;4.18;;;1050.40;1152.00;;;;;;5091063;28;20036;-74
2021/07/11 11:54:41;;;;;;;5.40;3.60;;;1075.90;1100.80;;;;;;5094199;28;20020;-73
2021/07/11 11:57:08;;;;;;;5.13;3.80;;;1100.80;1100.80;;;;;;5093886;28;20028;-75
2021/07/11 11:59:34;;;;;;;5.85;3.50;;;1126.40;1126.40;;;;;;5088235;28;20518;-73
2021/07/11 12:02:02;;;;;;;5.20;3.70;;;1126.80;1100.80;;;;;;5098559;28;20505;-74
2021/07/11 12:04:29;;;;;;;4.57;3.90;;;1152.00;1075.20;;;;;;5094503;28;20099;-73
2021/07/11 12:06:56;;;;;;;7.30;3.50;;;1126.80;1075.20;;;;;;5107101;28;20024;-74
2021/07/11 12:09:28;;;;;;;5.38;3.47;;;1127.30;1049.60;;;;;;5098796;28;20052;-71
2021/07/11 12:12:01;;;;;;;5.78;3.65;;;1152.10;1049.60;;;;;;5091579;28;20019;-71
2021/07/11 12:14:27;;;;;;;6.25;3.90;;;1101.60;1075.20;;;;;;5097963;28;20082;-73
2021/07/11 12:16:59;;;;;;;5.70;3.38;;;1101.70;1075.20;;;;;;5093276;28;20494;-73
2021/07/11 12:19:25;;;;;;;4.97;3.45;;;1126.60;1075.20;;;;;;5092249;28;20126;-73